Time;durP1;ratioP1;P1;durP2;ratioP2;P2;SDS_P1;SDS_P2;PMS_P1;PMS_P2;Temp;Humidity;BMP_temperature;BMP_pressure;BME280_temperature;BME280_humidity;BME280_pressure;Samples;Min_cycle;Max_cycle;Signal;HPM_P1;HPM_P2
2022/09/30 00:00:37;;;;;;;0.70;0.70;;;;;;;19.86;100.00;99636.38;5096271;28;20213;-81
2022/09/30 00:03:04;;;;;;;0.85;0.80;;;;;;;19.77;100.00;99616.47;5090938;28;20205;-82
2022/09/30 00:05:30;;;;;;;0.60;0.60;;;;;;;19.84;100.00;99633.78;5058104;28;20214;-81
2022/09/30 00:07:57;;;;;;;0.70;0.70;;;;;;;19.86;100.00;99642.50;5095799;28;20217;-82
2022/09/30 00:10:24;;;;;;;0.68;0.68;;;;;;;19.89;100.00;99652.94;5039879;28;20205;-82
2022/09/30 00:12:51;;;;;;;0.80;0.80;;;;;;;19.87;100.00;99648.66;5097219;28;20205;-81
2022/09/30 00:15:20;;;;;;;0.80;0.73;;;;;;;19.87;100.00;99644.22;5097113;28;20205;-82
2022/09/30 00:17:46;;;;;;;0.70;0.70;;;;;;;19.70;100.00;99646.50;5096692;28;20211;-82
2022/09/30 00:20:14;;;;;;;0.80;0.80;;;;;;;19.30;100.00;99589.75;5095250;28;20209;-82
2022/09/30 00:22:40;;;;;;;0.93;0.80;;;;;;;19.57;100.00;99639.88;5100854;28;20233;-81
2022/09/30 00:25:08;;;;;;;0.88;0.80;;;;;;;19.52;100.00;99647.00;5104817;28;20190;-82
2022/09/30 00:27:34;;;;;;;0.70;0.70;;;;;;;19.37;100.00;99647.44;5103542;28;20229;-82
2022/09/30 00:30:01;;;;;;;0.73;0.73;;;;;;;19.29;100.00;99651.13;5099734;28;20202;-82
2022/09/30 00:32:29;;;;;;;0.82;0.70;;;;;;;19.30;100.00;99646.72;5100417;28;20249;-82
2022/09/30 00:34:56;;;;;;;1.17;0.80;;;;;;;19.21;100.00;99649.59;5113400;28;20209;-82
2022/09/30 00:37:23;;;;;;;1.38;0.85;;;;;;;19.19;100.00;99648.78;5110499;28;20202;-82
2022/09/30 00:39:50;;;;;;;0.75;0.75;;;;;;;19.12;100.00;99642.81;5094728;28;20685;-82
2022/09/30 00:42:18;;;;;;;0.70;0.70;;;;;;;18.82;100.00;99601.59;5094999;28;20206;-82
2022/09/30 00:44:55;;;;;;;0.70;0.70;;;;;;;18.95;100.00;99629.25;5094965;28;20216;-82
2022/09/30 00:47:49;;;;;;;0.85;0.70;;;;;;;18.97;100.00;99637.97;5075728;28;20230;-82
2022/09/30 00:50:27;;;;;;;0.70;0.70;;;;;;;18.89;100.00;99628.56;5105442;28;20197;-82
2022/09/30 00:52:59;;;;;;;0.60;0.60;;;;;;;18.91;100.00;99635.50;5115192;28;20680;-82
2022/09/30 00:55:33;;;;;;;0.60;0.60;;;;;;;19.00;100.00;99650.16;5115020;28;20193;-82
2022/09/30 00:58:03;;;;;;;1.05;0.80;;;;;;;18.81;100.00;99632.25;5114813;28;20197;-81
2022/09/30 01:00:30;;;;;;;0.80;0.80;;;;;;;18.89;100.00;99660.09;5115080;28;20204;-82
2022/09/30 01:02:58;;;;;;;1.27;0.98;;;;;;;18.98;100.00;99650.19;5112982;28;20261;-81
2022/09/30 01:05:26;;;;;;;1.83;0.88;;;;;;;18.94;100.00;99643.28;5043541;28;20198;-82
2022/09/30 01:07:56;;;;;;;0.70;0.70;;;;;;;18.99;100.00;99657.19;5061346;28;20314;-80
2022/09/30 01:10:23;;;;;;;0.85;0.80;;;;;;;18.89;100.00;99652.22;5056281;28;20862;-80
2022/09/30 01:12:50;;;;;;;0.73;0.70;;;;;;;18.72;100.00;99634.25;5058920;28;20252;-82
2022/09/30 01:15:18;;;;;;;0.70;0.70;;;;;;;18.86;100.00;99658.41;5099308;28;20209;-82
2022/09/30 01:17:54;;;;;;;0.73;0.73;;;;;;;18.95;100.00;99666.03;5096690;28;20191;-81
2022/09/30 01:20:53;;;;;;;0.60;0.60;;;;;;;18.92;100.00;99660.88;5098762;28;20640;-82
2022/09/30 01:23:48;;;;;;;0.73;0.73;;;;;;;18.92;100.00;99668.75;5043274;28;20210;-82
2022/09/30 01:26:59;;;;;;;0.70;0.70;;;;;;;19.10;100.00;99685.81;5049002;28;20211;-82
2022/09/30 01:29:55;;;;;;;0.82;0.77;;;;;;;19.29;100.00;99687.94;5045401;28;20192;-82
2022/09/30 01:32:35;;;;;;;0.60;0.60;;;;;;;19.17;100.00;99655.84;5043762;28;20227;-82
2022/09/30 01:35:09;;;;;;;0.60;0.60;;;;;;;19.31;100.00;99695.75;5043175;28;20204;-80
2022/09/30 01:37:49;;;;;;;0.73;0.73;;;;;;;19.16;100.00;99668.13;5043794;28;20191;-81
2022/09/30 01:40:24;;;;;;;0.70;0.70;;;;;;;19.40;100.00;99685.00;5044040;28;20584;-82
2022/09/30 01:42:58;;;;;;;0.70;0.70;;;;;;;19.24;100.00;99678.44;5043459;28;20198;-81
2022/09/30 01:45:34;;;;;;;0.70;0.70;;;;;;;19.12;100.00;99666.47;5042957;28;20690;-82
2022/09/30 01:48:08;;;;;;;0.63;0.63;;;;;;;19.11;100.00;99679.66;5044363;28;20233;-81
2022/09/30 01:50:45;;;;;;;0.80;0.80;;;;;;;18.97;100.00;99674.78;5045157;28;20195;-81
2022/09/30 01:53:19;;;;;;;0.82;0.80;;;;;;;18.87;100.00;99661.91;4996673;28;20207;-82
2022/09/30 01:55:52;;;;;;;1.00;0.80;;;;;;;18.94;100.00;99668.72;4997418;28;20207;-81
2022/09/30 01:58:25;;;;;;;0.98;0.80;;;;;;;18.93;100.00;99673.13;5043343;28;20746;-82
2022/09/30 02:00:58;;;;;;;0.70;0.70;;;;;;;18.97;100.00;99664.25;5083332;28;20271;-81
2022/09/30 02:03:33;;;;;;;1.85;0.90;;;;;;;18.97;100.00;99659.00;5095359;28;20206;-82
2022/09/30 02:06:05;;;;;;;0.70;0.70;;;;;;;18.83;100.00;99648.00;5100457;28;20192;-81
2022/09/30 02:08:40;;;;;;;0.68;0.68;;;;;;;18.78;100.00;99655.97;5095533;28;20248;-82
2022/09/30 02:11:13;;;;;;;0.88;0.88;;;;;;;18.85;100.00;99658.44;5094750;28;20205;-82
2022/09/30 02:13:45;;;;;;;1.50;0.93;;;;;;;18.92;100.00;99668.75;5051532;28;20212;-82
2022/09/30 02:16:16;;;;;;;0.80;0.80;;;;;;;18.93;100.00;99664.38;5105053;28;20205;-81
2022/09/30 02:18:47;;;;;;;1.48;0.82;;;;;;;18.96;100.00;99670.41;5117474;28;20209;-82
2022/09/30 02:21:20;;;;;;;0.73;0.73;;;;;;;18.78;100.00;99618.34;5116420;28;20205;-81
2022/09/30 02:23:50;;;;;;;1.40;0.80;;;;;;;18.89;100.00;99637.31;5110560;28;20190;-82
2022/09/30 02:26:21;;;;;;;0.70;0.70;;;;;;;19.02;100.00;99667.63;5096315;28;20221;-82
2022/09/30 02:28:54;;;;;;;1.70;0.90;;;;;;;18.99;100.00;99667.69;5108996;28;20221;-83
2022/09/30 02:31:23;;;;;;;1.05;0.80;;;;;;;18.93;100.00;99664.38;5113611;28;20201;-82
2022/09/30 02:33:56;;;;;;;1.02;0.80;;;;;;;18.93;100.00;99667.88;5100717;28;20321;-81
2022/09/30 02:36:29;;;;;;;0.70;0.70;;;;;;;18.84;100.00;99668.06;5097549;28;20212;-81
2022/09/30 02:39:01;;;;;;;1.30;1.30;;;;;;;18.75;100.00;99670.94;5096326;28;20193;-82
2022/09/30 02:41:32;;;;;;;0.70;0.70;;;;;;;18.74;100.00;99653.44;5093206;28;20914;-82
2022/09/30 02:44:01;;;;;;;0.80;0.80;;;;;;;18.84;100.00;99665.44;5093820;28;20202;-81
2022/09/30 02:46:41;;;;;;;0.70;0.70;;;;;;;18.74;100.00;99646.44;5091147;28;20228;-82
2022/09/30 02:49:20;;;;;;;0.60;0.60;;;;;;;18.78;100.00;99661.22;5100237;28;20227;-80
2022/09/30 02:52:01;;;;;;;0.90;0.90;;;;;;;18.78;100.00;99663.00;5095922;28;20201;-81
2022/09/30 02:54:36;;;;;;;0.93;0.70;;;;;;;18.54;100.00;99632.09;5097242;28;20601;-80
2022/09/30 02:57:18;;;;;;;0.73;0.70;;;;;;;18.65;100.00;99656.31;5097197;28;20205;-81
2022/09/30 02:59:46;;;;;;;0.70;0.70;;;;;;;18.48;100.00;99654.03;5094750;28;20662;-80
2022/09/30 03:02:13;;;;;;;0.70;0.70;;;;;;;18.40;100.00;99642.03;5094503;28;20209;-79
2022/09/30 03:04:43;;;;;;;0.80;0.73;;;;;;;18.39;100.00;99627.16;5094006;28;20206;-79
2022/09/30 03:07:10;;;;;;;0.70;0.70;;;;;;;18.30;100.00;99636.97;5097275;28;20205;-81
2022/09/30 03:09:37;;;;;;;1.02;0.80;;;;;;;17.97;100.00;99571.31;5094692;28;20450;-80
2022/09/30 03:12:16;;;;;;;0.93;0.80;;;;;;;18.53;100.00;99646.97;5097719;28;20206;-80
2022/09/30 03:15:09;;;;;;;0.80;0.80;;;;;;;18.53;100.00;99640.84;5098597;28;20203;-80
2022/09/30 03:17:51;;;;;;;1.45;1.33;;;;;;;18.42;100.00;99637.59;5096569;28;20684;-80
2022/09/30 03:20:36;;;;;;;0.70;0.70;;;;;;;18.36;100.00;99643.00;5074236;28;20996;-80
2022/09/30 03:23:35;;;;;;;0.80;0.80;;;;;;;18.29;100.00;99637.91;5091954;28;20193;-80
2022/09/30 03:26:15;;;;;;;1.38;0.93;;;;;;;18.24;100.00;99647.63;5041668;28;20599;-80
2022/09/30 03:28:51;;;;;;;2.00;0.98;;;;;;;18.14;100.00;99643.50;5044709;28;20227;-79
2022/09/30 03:31:26;;;;;;;0.70;0.70;;;;;;;18.07;100.00;99652.41;5041353;28;20195;-80
2022/09/30 03:33:58;;;;;;;2.75;1.02;;;;;;;18.03;100.00;99655.97;5041813;28;20331;-80
2022/09/30 03:36:35;;;;;;;2.03;0.90;;;;;;;18.01;100.00;99655.16;5025439;28;20208;-80
2022/09/30 03:39:10;;;;;;;0.70;0.70;;;;;;;17.81;100.00;99624.09;5041390;28;20210;-80
2022/09/30 03:41:43;;;;;;;1.70;0.90;;;;;;;17.95;100.00;99649.16;5043692;28;20210;-80
2022/09/30 03:44:15;;;;;;;1.33;0.90;;;;;;;17.97;100.00;99655.25;5043102;28;20196;-80
2022/09/30 03:46:46;;;;;;;0.80;0.80;;;;;;;17.93;100.00;99657.09;5042945;28;20588;-80
2022/09/30 03:49:17;;;;;;;2.15;1.08;;;;;;;17.75;100.00;99628.63;4995720;28;21072;-80
2022/09/30 03:51:45;;;;;;;0.80;0.80;;;;;;;17.93;100.00;99664.09;5048404;28;20212;-80
2022/09/30 03:54:13;;;;;;;1.20;1.10;;;;;;;17.78;100.00;99649.53;5046868;28;20199;-80
2022/09/30 03:56:42;;;;;;;0.70;0.70;;;;;;;17.74;100.00;99659.22;5046753;28;20590;-80
2022/09/30 03:59:12;;;;;;;1.45;0.80;;;;;;;17.82;100.00;99678.28;5050657;28;20241;-80
2022/09/30 04:01:39;;;;;;;0.80;0.80;;;;;;;17.55;100.00;99651.75;5012772;28;20290;-80
2022/09/30 04:04:06;;;;;;;0.75;0.70;;;;;;;17.67;100.00;99678.59;5095142;28;20237;-80
2022/09/30 04:06:32;;;;;;;1.25;0.90;;;;;;;17.48;100.00;99644.91;5098484;28;20205;-82
2022/09/30 04:09:01;;;;;;;0.88;0.82;;;;;;;17.68;100.00;99674.22;5099116;28;20229;-79
2022/09/30 04:11:27;;;;;;;0.60;0.60;;;;;;;17.56;100.00;99677.03;5099195;28;20198;-79
2022/09/30 04:13:54;;;;;;;1.27;0.88;;;;;;;17.60;100.00;99670.88;5049697;28;20202;-81
2022/09/30 04:16:21;;;;;;;0.70;0.70;;;;;;;17.62;100.00;99669.13;5100844;28;20190;-81
2022/09/30 04:18:48;;;;;;;1.10;0.85;;;;;;;17.36;100.00;99627.66;5100702;28;20201;-80
2022/09/30 04:21:15;;;;;;;0.70;0.70;;;;;;;17.53;100.00;99664.00;5101327;28;20204;-81
2022/09/30 04:23:43;;;;;;;0.80;0.80;;;;;;;17.60;100.00;99660.41;5101438;28;20221;-81
2022/09/30 04:26:13;;;;;;;0.90;0.90;;;;;;;17.73;100.00;99678.47;5100244;28;20200;-81
2022/09/30 04:28:40;;;;;;;1.38;0.90;;;;;;;17.71;100.00;99677.66;5100407;28;20271;-81
2022/09/30 04:31:07;;;;;;;1.58;1.00;;;;;;;17.33;100.00;99599.75;5099890;28;20270;-81
2022/09/30 04:33:34;;;;;;;0.70;0.70;;;;;;;17.66;100.00;99674.25;5099335;28;20225;-81
2022/09/30 04:36:01;;;;;;;1.73;1.00;;;;;;;17.89;100.00;99689.50;5098260;28;20640;-81
2022/09/30 04:38:28;;;;;;;1.55;0.90;;;;;;;17.94;100.00;99686.81;5099249;28;20212;-81
2022/09/30 04:40:55;;;;;;;0.73;0.73;;;;;;;18.02;100.00;99695.34;5099853;28;20247;-80
2022/09/30 04:43:24;;;;;;;0.98;0.75;;;;;;;18.07;100.00;99672.53;5096549;28;20201;-81
2022/09/30 04:45:52;;;;;;;0.70;0.70;;;;;;;18.29;100.00;99706.13;5096388;28;20205;-81
2022/09/30 04:48:20;;;;;;;0.90;0.90;;;;;;;18.27;100.00;99692.16;5100583;28;20218;-80
2022/09/30 04:50:46;;;;;;;0.70;0.70;;;;;;;18.47;100.00;99719.75;5100565;28;20221;-81
2022/09/30 04:53:14;;;;;;;0.63;0.63;;;;;;;18.47;100.00;99699.59;5096660;28;20201;-79
2022/09/30 04:55:41;;;;;;;0.65;0.65;;;;;;;18.59;100.00;99706.34;5104977;28;20359;-79
2022/09/30 04:58:08;;;;;;;0.63;0.63;;;;;;;18.58;100.00;99696.75;5098072;28;20210;-77
2022/09/30 05:00:37;;;;;;;0.65;0.65;;;;;;;18.79;100.00;99723.38;5102511;28;20197;-77
2022/09/30 05:03:04;;;;;;;0.70;0.70;;;;;;;18.90;100.00;99740.63;5096622;28;20217;-80
2022/09/30 05:05:33;;;;;;;0.68;0.68;;;;;;;19.01;100.00;99736.00;5095191;28;20611;-80
2022/09/30 05:08:01;;;;;;;0.70;0.70;;;;;;;19.01;100.00;99738.63;5105859;28;20205;-80
2022/09/30 05:10:28;;;;;;;0.80;0.80;;;;;;;19.00;100.00;99732.50;5111395;28;20217;-80
2022/09/30 05:12:57;;;;;;;0.70;0.70;;;;;;;19.09;100.00;99731.38;5105684;28;20220;-80
2022/09/30 05:15:24;;;;;;;0.70;0.70;;;;;;;19.02;100.00;99741.19;5111001;28;20244;-81
2022/09/30 05:17:52;;;;;;;0.90;0.75;;;;;;;19.15;100.00;99734.75;5094877;28;20206;-78
2022/09/30 05:20:19;;;;;;;1.70;1.00;;;;;;;19.04;100.00;99751.69;5107514;28;20213;-78
2022/09/30 05:22:46;;;;;;;0.60;0.60;;;;;;;18.77;100.00;99735.66;5104791;28;20201;-79
2022/09/30 05:25:13;;;;;;;0.88;0.80;;;;;;;18.93;100.00;99751.94;5111692;28;20296;-77
2022/09/30 05:27:39;;;;;;;0.70;0.70;;;;;;;18.85;100.00;99748.63;5102369;28;20221;-75
2022/09/30 05:30:08;;;;;;;0.85;0.75;;;;;;;18.93;100.00;99728.28;5098602;28;20218;-77
2022/09/30 05:32:35;;;;;;;0.70;0.70;;;;;;;19.23;100.00;99766.94;5093594;28;20237;-76
2022/09/30 05:35:03;;;;;;;0.70;0.70;;;;;;;19.46;100.00;99769.03;5103118;28;20201;-76
2022/09/30 05:37:30;;;;;;;1.33;0.90;;;;;;;19.60;100.00;99776.53;5107397;28;20208;-75
2022/09/30 05:39:58;;;;;;;0.77;0.77;;;;;;;19.78;100.00;99782.19;5093806;28;20672;-75
2022/09/30 05:42:24;;;;;;;0.63;0.63;;;;;;;19.98;100.00;99778.97;5112996;28;20229;-74
2022/09/30 05:44:51;;;;;;;1.45;0.90;;;;;;;20.03;100.00;99760.44;5103079;28;20198;-79
2022/09/30 05:47:18;;;;;;;0.70;0.70;;;;;;;20.43;100.00;99807.59;5092702;28;20205;-77
2022/09/30 05:49:45;;;;;;;0.70;0.70;;;;;;;20.57;100.00;99814.16;5101313;28;20237;-78
2022/09/30 05:52:13;;;;;;;0.70;0.70;;;;;;;20.73;100.00;99822.47;5099730;28;20255;-77
2022/09/30 05:54:41;;;;;;;0.80;0.80;;;;;;;20.68;100.00;99834.94;5100344;28;20205;-78
2022/09/30 05:57:08;;;;;;;0.68;0.68;;;;;;;20.76;100.00;99835.56;5113909;28;20646;-78
2022/09/30 05:59:36;;;;;;;0.60;0.60;;;;;;;20.69;100.00;99831.38;5113750;28;20205;-79
2022/09/30 06:02:04;;;;;;;0.60;0.60;;;;;;;20.75;100.00;99836.47;5113948;28;20202;-79
2022/09/30 06:04:30;;;;;;;0.70;0.70;;;;;;;20.95;100.00;99828.78;5114312;28;20250;-78
2022/09/30 06:06:57;;;;;;;0.70;0.70;;;;;;;21.07;100.00;99841.59;5114619;28;20216;-78
2022/09/30 06:09:25;;;;;;;0.63;0.63;;;;;;;21.18;100.00;99846.56;5113492;28;20222;-78
2022/09/30 06:11:59;;;;;;;0.70;0.70;;;;;;;21.21;100.00;99847.34;5113277;28;20201;-79
2022/09/30 06:14:27;;;;;;;0.70;0.70;;;;;;;21.09;100.00;99846.81;5113624;28;20193;-79
2022/09/30 06:16:54;;;;;;;0.63;0.63;;;;;;;21.04;100.00;99844.34;5113934;28;20189;-79
2022/09/30 06:19:21;;;;;;;0.60;0.60;;;;;;;21.09;100.00;99844.19;5113661;28;20248;-79
2022/09/30 06:21:48;;;;;;;0.80;0.68;;;;;;;21.25;100.00;99848.09;5113676;28;20844;-78
2022/09/30 06:24:15;;;;;;;0.70;0.70;;;;;;;21.29;100.00;99864.69;5113394;28;20201;-79
2022/09/30 06:26:43;;;;;;;0.60;0.60;;;;;;;21.45;100.00;99865.91;5060636;28;20205;-78
2022/09/30 06:29:10;;;;;;;0.65;0.65;;;;;;;21.41;100.00;99864.28;5113101;28;20589;-80
2022/09/30 06:31:37;;;;;;;1.27;0.82;;;;;;;20.99;100.00;99798.78;5113140;28;20201;-79
2022/09/30 06:34:04;;;;;;;3.30;1.60;;;;;;;21.47;100.00;99866.72;5072981;28;20195;-79
2022/09/30 06:36:32;;;;;;;0.60;0.60;;;;;;;21.43;100.00;99867.75;5072876;28;20201;-78
2022/09/30 06:39:00;;;;;;;0.65;0.65;;;;;;;21.58;100.00;99876.00;5072585;28;20268;-79
2022/09/30 06:41:27;;;;;;;0.90;0.90;;;;;;;21.61;100.00;99867.13;5072086;28;20202;-79
2022/09/30 06:43:56;;;;;;;0.75;0.75;;;;;;;21.69;100.00;99873.00;5072069;28;20195;-78
2022/09/30 06:46:23;;;;;;;0.60;0.60;;;;;;;21.56;100.00;99840.03;5072316;28;20206;-78
2022/09/30 06:48:51;;;;;;;2.33;2.08;;;;;;;21.80;100.00;99877.91;5072060;28;20227;-78
2022/09/30 06:51:19;;;;;;;2.03;1.42;;;;;;;21.76;100.00;99853.41;5071921;28;20195;-76
2022/09/30 06:53:49;;;;;;;0.70;0.70;;;;;;;21.93;100.00;99882.78;5071882;28;20195;-75
2022/09/30 06:56:17;;;;;;;1.13;1.05;;;;;;;21.87;100.00;99890.84;5071649;28;20194;-75
2022/09/30 06:58:44;;;;;;;0.70;0.70;;;;;;;21.85;100.00;99879.50;5071743;28;20268;-78
2022/09/30 07:01:13;;;;;;;0.93;0.88;;;;;;;22.03;100.00;99891.25;5072028;28;20207;-75
2022/09/30 07:03:43;;;;;;;1.33;0.90;;;;;;;22.08;100.00;99895.44;5071697;28;20191;-77
2022/09/30 07:06:11;;;;;;;1.33;1.02;;;;;;;22.21;100.00;99893.25;5071509;28;20198;-74
2022/09/30 07:08:38;;;;;;;0.80;0.80;;;;;;;22.32;99.86;99903.44;5071058;28;20203;-74
2022/09/30 07:11:10;;;;;;;0.60;0.60;;;;;;;21.91;99.83;99838.84;5071229;28;20199;-74
2022/09/30 07:13:38;;;;;;;0.95;0.80;;;;;;;22.19;99.38;99903.84;5071542;28;20218;-74
2022/09/30 07:16:05;;;;;;;0.82;0.82;;;;;;;22.27;99.56;99878.94;5071405;28;20195;-74
2022/09/30 07:18:33;;;;;;;0.70;0.70;;;;;;;22.56;100.00;99923.69;5071237;28;20198;-74
2022/09/30 07:21:00;;;;;;;0.70;0.70;;;;;;;22.61;100.00;99927.03;5035788;28;20202;-74
2022/09/30 07:23:26;;;;;;;7.82;1.80;;;;;;;22.79;99.86;99934.31;5068511;28;20203;-74
2022/09/30 07:25:56;;;;;;;1.50;0.82;;;;;;;22.99;99.69;99939.72;5050929;28;20207;-80
2022/09/30 07:28:26;;;;;;;1.65;1.40;;;;;;;23.03;98.78;99919.28;5051063;28;20235;-76
2022/09/30 07:30:55;;;;;;;1.63;0.93;;;;;;;23.13;97.33;99937.41;5050652;28;20410;-76
2022/09/30 07:33:22;;;;;;;1.95;1.42;;;;;;;23.29;96.42;99940.31;5094242;28;20487;-75
2022/09/30 07:35:52;;;;;;;1.08;0.88;;;;;;;23.33;95.74;99904.84;5091448;28;20202;-75
2022/09/30 07:38:19;;;;;;;0.77;0.70;;;;;;;23.45;94.66;99932.66;5091576;28;20218;-76
2022/09/30 07:40:55;;;;;;;1.10;0.90;;;;;;;23.54;93.83;99938.44;5095944;28;20221;-76
2022/09/30 07:43:22;;;;;;;0.73;0.73;;;;;;;23.55;93.77;99934.00;5099171;28;20668;-79
2022/09/30 07:45:50;;;;;;;0.70;0.70;;;;;;;23.39;92.73;99896.69;5091152;28;20278;-75
2022/09/30 07:51:02;;;;;;;0.70;0.70;;;;;;;23.82;92.15;99940.84;5090979;28;20225;-76
2022/09/30 07:53:29;;;;;;;1.30;0.80;;;;;;;23.89;91.30;99944.97;5091712;28;20680;-84
2022/09/30 07:55:56;;;;;;;1.35;1.27;;;;;;;23.99;93.78;99948.94;5106437;28;20206;-88
2022/09/30 07:58:22;;;;;;;1.20;0.82;;;;;;;24.06;100.00;99937.16;5101249;28;20288;-81
2022/09/30 08:00:50;;;;;;;1.05;0.85;;;;;;;23.72;91.34;99931.56;5095087;28;20598;-74
2022/09/30 08:03:18;;;;;;;0.70;0.70;;;;;;;23.86;93.27;99966.28;5090772;28;20575;-74
2022/09/30 08:05:44;;;;;;;0.70;0.70;;;;;;;24.09;91.14;99967.94;5090729;28;20213;-74
2022/09/30 08:08:13;;;;;;;0.80;0.70;;;;;;;24.09;89.45;99962.66;5044664;28;20198;-74
2022/09/30 08:10:40;;;;;;;0.75;0.75;;;;;;;24.01;90.15;99976.22;5062341;28;20222;-74
2022/09/30 08:13:07;;;;;;;0.80;0.80;;;;;;;24.14;89.20;99976.63;5090738;28;20617;-79
2022/09/30 08:15:34;;;;;;;0.60;0.60;;;;;;;23.04;87.77;99770.28;5049082;28;20193;-84
2022/09/30 08:18:01;;;;;;;2.13;1.00;;;;;;;24.40;87.70;99983.47;5096800;28;20193;-75
2022/09/30 08:20:28;;;;;;;1.17;0.80;;;;;;;24.54;86.51;99984.56;5101877;28;20849;-76
2022/09/30 08:22:55;;;;;;;0.95;0.93;;;;;;;24.41;86.50;99954.22;5091924;28;20206;-75
2022/09/30 08:25:23;;;;;;;0.60;0.60;;;;;;;24.80;85.19;99967.50;5113038;28;20194;-80
2022/09/30 08:27:50;;;;;;;0.95;0.80;;;;;;;24.85;84.82;99951.41;5098341;28;20207;-76
2022/09/30 08:30:17;;;;;;;1.00;0.82;;;;;;;25.09;83.21;99975.03;5090876;28;20737;-75
2022/09/30 08:32:44;;;;;;;1.90;0.90;;;;;;;25.09;83.58;99959.13;5049564;28;20248;-76
2022/09/30 08:35:11;;;;;;;0.95;0.90;;;;;;;25.14;82.79;99973.03;5093822;28;20198;-76
2022/09/30 08:37:38;;;;;;;0.70;0.70;;;;;;;25.14;82.26;99983.66;5095640;28;20205;-79
2022/09/30 08:40:05;;;;;;;0.95;0.80;;;;;;;25.27;81.92;99985.72;5098131;28;20206;-78
2022/09/30 08:42:48;;;;;;;1.00;0.80;;;;;;;25.21;82.22;99978.06;5094428;28;20210;-79
2022/09/30 08:45:29;;;;;;;0.90;0.73;;;;;;;25.15;82.46;99947.34;5094511;28;20193;-80
2022/09/30 08:48:07;;;;;;;3.75;2.58;;;;;;;25.22;81.76;99951.44;5094371;28;20219;-74
2022/09/30 08:50:47;;;;;;;0.60;0.60;;;;;;;25.30;79.02;99989.09;5097974;28;20621;-75
2022/09/30 08:53:23;;;;;;;0.98;0.85;;;;;;;25.35;75.29;99986.22;5102241;28;20214;-75
2022/09/30 08:55:52;;;;;;;0.70;0.70;;;;;;;25.43;77.43;99986.75;5093696;28;20622;-74
2022/09/30 08:58:26;;;;;;;0.95;0.75;;;;;;;25.62;75.59;99991.13;5093646;28;20209;-75
2022/09/30 09:00:58;;;;;;;0.70;0.70;;;;;;;25.67;76.11;99967.00;5093557;28;20204;-75
2022/09/30 09:03:29;;;;;;;0.70;0.70;;;;;;;25.83;75.23;99975.06;5093175;28;20259;-75
2022/09/30 09:06:08;;;;;;;1.15;0.88;;;;;;;25.91;74.48;99965.78;5093027;28;20640;-73
2022/09/30 09:08:50;;;;;;;0.80;0.80;;;;;;;26.10;73.84;99985.22;5066544;28;20202;-73
2022/09/30 09:11:24;;;;;;;1.30;0.90;;;;;;;25.74;74.19;99917.97;5092938;28;20221;-74
2022/09/30 09:13:59;;;;;;;3.60;3.13;;;;;;;26.14;72.00;99989.44;5106654;28;20694;-73
2022/09/30 09:16:33;;;;;;;1.17;0.90;;;;;;;26.26;70.77;99987.97;5092915;28;20194;-74
2022/09/30 09:19:09;;;;;;;6.22;1.35;;;;;;;26.31;69.45;99990.41;5092959;28;20202;-75
2022/09/30 09:21:53;;;;;;;1.77;1.67;;;;;;;26.48;68.79;99975.31;5100677;28;20708;-74
2022/09/30 09:24:23;;;;;;;0.63;0.63;;;;;;;26.62;67.55;99985.22;5097375;28;20198;-75
2022/09/30 09:26:53;;;;;;;0.60;0.60;;;;;;;26.63;66.21;99981.63;5093642;28;20267;-75
2022/09/30 09:29:38;;;;;;;1.33;1.23;;;;;;;26.68;65.05;99984.06;5093275;28;20217;-76
2022/09/30 09:32:12;;;;;;;0.70;0.70;;;;;;;26.70;64.29;99983.03;5098902;28;20236;-75
2022/09/30 09:34:40;;;;;;;0.73;0.73;;;;;;;26.66;63.57;99968.16;5100374;28;20205;-76
2022/09/30 09:37:15;;;;;;;0.68;0.68;;;;;;;26.73;62.37;99966.88;5041717;28;20678;-75
2022/09/30 09:40:03;;;;;;;0.70;0.70;;;;;;;27.02;60.62;99986.66;5093472;28;20232;-76
2022/09/30 09:42:44;;;;;;;0.80;0.80;;;;;;;26.99;61.04;99957.56;5093310;28;20190;-73
2022/09/30 09:45:21;;;;;;;0.68;0.68;;;;;;;27.09;60.51;99964.94;5093266;28;20206;-76
2022/09/30 09:47:51;;;;;;;3.63;1.13;;;;;;;27.31;59.38;99974.41;5093322;28;20201;-77
2022/09/30 09:50:23;;;;;;;4.28;1.27;;;;;;;27.19;59.51;99983.94;5093334;28;20243;-78
2022/09/30 09:53:03;;;;;;;1.20;0.88;;;;;;;27.10;58.16;99977.31;5093266;28;20201;-76
2022/09/30 09:55:30;;;;;;;2.30;1.08;;;;;;;27.22;57.43;99996.25;5073846;28;20292;-86
2022/09/30 09:58:09;;;;;;;0.75;0.75;;;;;;;27.41;56.89;99978.28;5093447;28;20210;-77
2022/09/30 10:03:24;;;;;;;1.65;0.90;;;;;;;27.62;54.01;99974.44;5093327;28;20212;-77
2022/09/30 10:06:01;;;;;;;0.65;0.65;;;;;;;27.70;53.13;99966.03;5092821;28;20223;-73
2022/09/30 10:08:30;;;;;;;0.70;0.70;;;;;;;27.85;51.72;99978.47;5103934;28;20213;-74
2022/09/30 10:10:59;;;;;;;0.85;0.70;;;;;;;28.12;52.22;99978.69;5094856;28;20230;-74
2022/09/30 10:13:29;;;;;;;0.70;0.70;;;;;;;28.17;50.59;99982.81;5102885;28;20201;-74
2022/09/30 10:15:59;;;;;;;0.70;0.70;;;;;;;28.21;49.02;99975.50;5095566;28;20221;-74
2022/09/30 10:18:28;;;;;;;2.25;0.90;;;;;;;28.17;49.27;99960.63;5101664;28;20546;-81
2022/09/30 10:20:58;;;;;;;0.65;0.65;;;;;;;28.29;49.44;99981.25;5059799;28;20209;-75
2022/09/30 10:23:31;;;;;;;1.33;0.80;;;;;;;28.41;48.14;99985.84;5095367;28;20289;-74
2022/09/30 10:26:02;;;;;;;0.80;0.68;;;;;;;28.54;46.96;99986.81;5092021;28;20198;-74
2022/09/30 10:28:31;;;;;;;0.70;0.70;;;;;;;28.35;46.99;99967.53;5092025;28;20198;-73
2022/09/30 10:31:10;;;;;;;1.13;0.82;;;;;;;28.48;46.12;99966.72;5091603;28;20236;-74
2022/09/30 10:33:43;;;;;;;1.85;0.90;;;;;;;28.60;46.25;99970.44;5107507;28;20618;-76
2022/09/30 10:36:15;;;;;;;1.17;0.80;;;;;;;28.73;46.84;99974.09;5092165;28;20674;-76
2022/09/30 10:38:52;;;;;;;1.38;0.77;;;;;;;28.47;45.74;99970.31;5096123;28;20229;-76
2022/09/30 10:41:24;;;;;;;1.50;0.85;;;;;;;28.64;45.92;99966.66;5012763;28;20266;-77
2022/09/30 10:43:53;;;;;;;1.85;0.88;;;;;;;28.68;45.66;99973.53;5094058;28;20217;-76
2022/09/30 10:46:25;;;;;;;1.35;0.80;;;;;;;28.83;45.01;99985.06;5092665;28;20646;-76
2022/09/30 10:48:56;;;;;;;0.57;0.57;;;;;;;28.79;45.66;99984.41;5092162;28;20584;-77
2022/09/30 10:51:36;;;;;;;2.05;0.95;;;;;;;28.82;45.83;99988.72;5091825;28;20218;-76
2022/09/30 10:54:04;;;;;;;0.73;0.70;;;;;;;28.57;45.91;99987.47;5041976;28;20202;-75
2022/09/30 10:56:40;;;;;;;0.85;0.70;;;;;;;28.61;46.66;99981.97;5092260;28;20312;-76
2022/09/30 10:59:25;;;;;;;0.65;0.65;;;;;;;28.63;46.04;99988.94;5095429;28;20691;-76
2022/09/30 11:01:59;;;;;;;0.73;0.73;;;;;;;28.92;43.53;99982.72;5099063;28;20697;-76
2022/09/30 11:04:32;;;;;;;0.80;0.80;;;;;;;29.09;44.49;99994.13;5091745;28;20791;-79
2022/09/30 11:07:10;;;;;;;0.70;0.70;;;;;;;29.20;44.62;99995.19;5105252;28;20202;-77
2022/09/30 11:09:44;;;;;;;0.57;0.57;;;;;;;29.04;44.41;99984.59;5063693;28;20205;-79
2022/09/30 11:12:20;;;;;;;0.95;0.80;;;;;;;29.23;43.91;99996.78;5112382;28;20737;-77
2022/09/30 11:14:53;;;;;;;0.60;0.60;;;;;;;29.33;43.00;99995.28;5112655;28;20223;-76
2022/09/30 11:17:32;;;;;;;1.05;0.77;;;;;;;29.30;42.36;99979.47;5112504;28;20226;-76
2022/09/30 11:20:08;;;;;;;0.80;0.73;;;;;;;29.74;41.70;99990.81;5112447;28;20197;-79
2022/09/30 11:22:46;;;;;;;0.57;0.57;;;;;;;29.94;40.79;99963.66;5107416;28;20239;-77
2022/09/30 11:25:15;;;;;;;0.77;0.77;;;;;;;30.04;40.87;99987.13;5110995;28;20652;-77
2022/09/30 11:28:12;;;;;;;0.73;0.70;;;;;;;30.07;39.68;99990.47;5109759;28;20216;-77
2022/09/30 11:30:48;;;;;;;0.85;0.60;;;;;;;30.08;40.17;99986.78;5007513;28;20224;-75
2022/09/30 11:33:35;;;;;;;1.05;0.80;;;;;;;30.11;39.77;99983.09;4974385;28;20216;-76
2022/09/30 11:36:08;;;;;;;0.98;0.80;;;;;;;30.27;39.92;99983.75;5007133;28;20212;-77
2022/09/30 11:38:54;;;;;;;1.33;0.77;;;;;;;30.52;38.99;99991.84;4975020;28;20344;-79
2022/09/30 11:41:27;;;;;;;0.70;0.70;;;;;;;30.27;38.36;99995.31;5008084;28;20207;-78
2022/09/30 11:44:04;;;;;;;0.70;0.70;;;;;;;30.55;38.69;99985.44;5008538;28;20740;-78
2022/09/30 11:46:57;;;;;;;0.70;0.70;;;;;;;30.45;38.08;99979.84;5008633;28;20231;-76
2022/09/30 11:49:47;;;;;;;0.80;0.75;;;;;;;30.73;38.62;99981.47;5008777;28;20201;-78
2022/09/30 11:52:22;;;;;;;0.60;0.60;;;;;;;30.36;39.48;99985.78;5008706;28;20252;-78
2022/09/30 11:55:20;;;;;;;0.50;0.50;;;;;;;30.37;39.67;99974.13;5008315;28;20208;-78